Latest METARs, TAFs and NOTAMs for EGSS


---------------------------------------------------------------------------
	(OBSERVATIONS)
EGSS 212250Z AUTO 30002KT 3300 BR NCD 12/11 Q1018=
EGSS 212220Z AUTO 32003KT 6000 FEW009 13/12 Q1018=
EGSS 212150Z VRB03KT 3700 BR SCT006 BKN011 BKN019 13/13 Q1018=
EGSS 212120Z 27002KT 2900 BR SCT012 BKN026 BKN034 13/13 Q1018=
EGSS 212050Z AUTO 25004KT 4400 BR SCT022 BKN034 13/13 Q1018=
EGSS 212020Z AUTO 26003KT 5000 BR FEW020 BKN035 14/13 Q1017=
---------------------------------------------------------------------------
	(FC)
Sorry, FC For EGSS Not Found
---------------------------------------------------------------------------
	(TERMINAL AREA FORECAST)
AMD EGSS 212157Z 2121/2224 28004KT 9999 BKN009
    BECMG 2121/2123 SCT035
    TEMPO 2121/2201 3000 BR
    TEMPO 2201/2210 3000 BR BKN004
    PROB30 2202/2209 0300 FG BKN001=
---------------------------------------------------------------------------
	(NOTAMS)


EGSS A3040/17 HOLDING POINT UNIFORM CLOSED. TAXIWAY GOLF CLOSED
    BETWEEN HOLDING POINTS UNIFORM AND TAXIWAY FOXTROT. 15 SEP
    16:24 2017 UNTIL 22 SEP 17:00 2017. CREATED: 15 SEP 16:24
    2017

EGSS V0263/17 [US DOD PROCEDURAL NOTAM] STANDARD INSTRUMENT ARRIVAL
    (STAR) NOT AUTHORIZED ABBOT A, D, E, F ARRIVAL. 18 AUG 10:47
    2017 UNTIL 31 DEC 23:59 2017. CREATED: 18 AUG 10:47 2017

EGSS V0265/17 [US DOD PROCEDURAL NOTAM] STANDARD INSTRUMENT ARRIVAL
    (STAR) NOT AUTHORIZED LOREL B, C, L, M, N, P, S F ARRIVAL.
    18 AUG 10:53 2017 UNTIL 31 DEC 23:59 2017. CREATED: 18 AUG
    10:53 2017

EGSS V0267/17 [US DOD PROCEDURAL NOTAM] STANDARD INSTRUMENT ARRIVAL
    (STAR) NOT AUTHORIZED LOREL/ASKEY (NORTH) ARRIVAL. 18 AUG
    10:54 2017 UNTIL 31 DEC 23:59 2017. CREATED: 18 AUG 10:54
    2017

---------------------------------------------------------------------------